createdAt,value
2018-06-25T00:02:22.906Z,16.40
2018-06-25T00:04:51.585Z,16.40
2018-06-25T00:07:20.092Z,16.40
2018-06-25T00:09:48.699Z,16.30
2018-06-25T00:12:17.442Z,16.40
2018-06-25T00:14:46.013Z,16.40
2018-06-25T00:26:12.063Z,16.10
2018-06-25T00:31:08.792Z,15.50
2018-06-25T00:42:16.419Z,15.50
2018-06-25T00:44:46.982Z,15.50
2018-06-25T01:06:23.426Z,15.50
2018-06-25T01:08:51.966Z,15.60
2018-06-25T01:13:48.653Z,15.10
2018-06-25T01:16:17.606Z,15.20
2018-06-25T01:18:46.731Z,15.20
2018-06-25T01:33:42.182Z,15.20
2018-06-25T01:36:10.799Z,14.80
2018-06-25T01:38:39.258Z,14.80
2018-06-25T01:41:07.834Z,14.80
2018-06-25T01:43:36.331Z,14.90
2018-06-25T01:46:05.094Z,14.90
2018-06-25T01:48:33.600Z,15.00
2018-06-25T01:51:03.551Z,15.00
2018-06-25T01:53:32.086Z,15.00
2018-06-25T01:58:28.735Z,15.10
2018-06-25T02:00:57.234Z,15.10
2018-06-25T02:03:25.719Z,15.10
2018-06-25T02:05:54.235Z,15.10
2018-06-25T02:08:22.746Z,15.00
2018-06-25T02:10:51.270Z,15.00
2018-06-25T02:13:19.823Z,15.00
2018-06-25T02:18:17.567Z,15.00
2018-06-25T02:20:46.436Z,14.90
2018-06-25T02:32:06.605Z,14.90
2018-06-25T02:34:35.064Z,14.90
2018-06-25T02:37:03.587Z,14.50
2018-06-25T02:39:32.110Z,14.50
2018-06-25T02:42:00.613Z,14.50
2018-06-25T02:44:29.212Z,14.60
2018-06-25T02:46:58.232Z,14.70
2018-06-25T02:49:26.696Z,14.70
2018-06-25T02:51:55.166Z,14.80
2018-06-25T02:54:23.725Z,14.80
2018-06-25T02:56:52.425Z,14.80
2018-06-25T02:59:21.062Z,14.80
2018-06-25T03:01:49.562Z,14.90
2018-06-25T03:04:18.063Z,14.90
2018-06-25T03:06:48.117Z,14.80
2018-06-25T03:09:17.499Z,14.80
2018-06-25T03:11:45.973Z,14.80
2018-06-25T03:34:54.243Z,14.90
2018-06-25T03:37:22.758Z,12.50
2018-06-25T03:39:51.237Z,12.40
2018-06-25T03:42:19.666Z,12.30
2018-06-25T03:44:48.187Z,12.30
2018-06-25T03:47:17.346Z,12.30
2018-06-25T03:49:45.844Z,12.30
2018-06-25T04:04:40.954Z,12.40
2018-06-25T04:09:37.734Z,12.20
2018-06-25T04:12:06.277Z,12.20
2018-06-25T04:14:34.759Z,12.30
2018-06-25T04:17:03.432Z,12.30
2018-06-25T04:19:31.892Z,12.40
2018-06-25T04:22:01.078Z,12.50
2018-06-25T04:24:30.127Z,12.60
2018-06-25T04:26:58.703Z,12.80
2018-06-25T04:31:55.510Z,13.00
2018-06-25T04:34:24.010Z,13.10
2018-06-25T04:36:52.670Z,13.20
2018-06-25T04:39:21.159Z,13.10
2018-06-25T04:41:49.739Z,13.20
2018-06-25T04:44:18.350Z,13.30
2018-06-25T04:46:46.925Z,13.30
2018-06-25T04:49:17.067Z,13.40
2018-06-25T04:51:46.183Z,13.50
2018-06-25T04:54:16.847Z,13.60
2018-06-25T04:56:45.399Z,13.70
2018-06-25T05:10:41.096Z,13.90
2018-06-25T05:13:09.580Z,14.30
2018-06-25T05:24:17.334Z,15.10
2018-06-25T05:26:46.979Z,15.40
2018-06-25T05:40:59.631Z,16.20
2018-06-25T05:43:28.133Z,17.60
2018-06-25T05:45:56.708Z,17.70
2018-06-25T05:48:25.227Z,17.90
2018-06-25T05:50:55.394Z,18.10
2018-06-25T05:53:23.901Z,18.40
2018-06-25T05:55:52.491Z,18.70
2018-06-25T05:58:20.959Z,18.80
2018-06-25T06:00:49.856Z,19.00
2018-06-25T06:03:18.399Z,19.20
2018-06-25T06:05:46.990Z,19.60
2018-06-25T06:08:17.980Z,19.90
2018-06-25T06:10:46.515Z,20.00
2018-06-25T06:25:47.659Z,20.50
2018-06-25T06:28:17.266Z,20.60
2018-06-25T06:30:45.827Z,20.60
2018-06-25T06:48:09.602Z,22.20
2018-06-25T06:59:17.954Z,21.50
2018-06-25T07:16:35.098Z,20.90
2018-06-25T07:19:03.628Z,21.00
2018-06-25T07:21:32.342Z,20.90
2018-06-25T07:24:00.831Z,20.90
2018-06-25T07:26:29.340Z,21.10
2018-06-25T07:28:58.288Z,21.60
2018-06-25T07:31:26.785Z,22.80
2018-06-25T07:33:55.376Z,23.90
2018-06-25T07:36:23.851Z,24.50
2018-06-25T07:38:52.510Z,25.10
2018-06-25T07:41:21.036Z,27.10
2018-06-25T07:43:49.498Z,29.20
2018-06-25T07:46:18.079Z,30.30
2018-06-25T07:48:47.903Z,32.40
2018-06-25T07:51:17.627Z,34.40
2018-06-25T07:53:46.119Z,35.30
2018-06-25T08:04:36.158Z,34.80
2018-06-25T08:07:04.675Z,33.50
2018-06-25T08:12:01.472Z,25.60
2018-06-25T08:14:29.982Z,24.40
2018-06-25T08:16:58.459Z,23.50
2018-06-25T08:19:27.032Z,22.50
2018-06-25T08:21:55.546Z,21.30
2018-06-25T08:24:24.158Z,20.40
2018-06-25T08:26:53.223Z,19.80
2018-06-25T08:29:22.632Z,19.30
2018-06-25T08:31:51.082Z,19.10
2018-06-25T08:34:19.696Z,19.00
2018-06-25T08:41:46.325Z,18.80
2018-06-25T08:44:16.390Z,19.10
2018-06-25T08:46:45.047Z,19.80
2018-06-25T08:49:14.541Z,20.90
2018-06-25T08:51:43.523Z,22.30
2018-06-25T08:54:11.986Z,23.60
2018-06-25T08:56:40.504Z,23.70
2018-06-25T08:59:09.264Z,23.50
2018-06-25T09:10:17.391Z,22.50
2018-06-25T09:12:45.898Z,22.30
2018-06-25T09:37:31.062Z,22.10
2018-06-25T09:39:59.626Z,22.40
2018-06-25T09:42:28.296Z,22.20
2018-06-25T09:44:57.008Z,22.00
2018-06-25T09:47:25.543Z,21.90
2018-06-25T09:49:54.047Z,22.00
2018-06-25T09:52:22.551Z,21.90
2018-06-25T09:54:51.430Z,22.00
2018-06-25T09:57:19.910Z,22.00
2018-06-25T09:59:48.408Z,22.00
2018-06-25T10:02:17.572Z,21.90
2018-06-25T10:04:46.348Z,21.70
2018-06-25T10:15:37.192Z,21.50
2018-06-25T10:18:05.802Z,21.70
2018-06-25T10:20:34.263Z,22.50
2018-06-25T10:23:02.901Z,22.70
2018-06-25T10:25:31.573Z,22.90
2018-06-25T10:28:00.102Z,23.10
2018-06-25T10:30:28.624Z,23.40
2018-06-25T10:32:57.130Z,23.60
2018-06-25T10:37:55.457Z,24.00
2018-06-25T10:42:52.534Z,23.90
2018-06-25T10:45:21.182Z,23.70
2018-06-25T10:47:49.876Z,23.70
2018-06-25T10:50:18.392Z,23.20
2018-06-25T10:52:46.911Z,23.10
2018-06-25T11:07:42.654Z,22.70
2018-06-25T11:10:11.191Z,23.50
2018-06-25T11:12:40.307Z,24.00
2018-06-25T11:15:09.001Z,23.40
2018-06-25T11:26:17.349Z,23.30
2018-06-25T11:41:06.979Z,23.20
2018-06-25T11:43:35.452Z,23.20
2018-06-25T11:46:04.049Z,23.70
2018-06-25T11:48:32.603Z,24.00
2018-06-25T11:51:01.159Z,24.20
2018-06-25T11:53:29.786Z,23.90
2018-06-25T11:55:58.536Z,23.80
2018-06-25T11:58:27.042Z,24.00
2018-06-25T12:00:55.943Z,24.10
2018-06-25T12:03:24.630Z,24.40
2018-06-25T12:05:53.196Z,24.60
2018-06-25T12:08:22.023Z,24.80
2018-06-25T12:10:50.583Z,24.70
2018-06-25T12:13:20.029Z,24.50
2018-06-25T12:15:51.231Z,24.00
2018-06-25T12:18:20.018Z,23.80
2018-06-25T12:20:48.525Z,23.70
2018-06-25T12:23:22.776Z,23.60
2018-06-25T12:25:51.347Z,23.40
2018-06-25T12:28:19.865Z,22.20
2018-06-25T12:30:48.553Z,22.20
2018-06-25T12:33:17.395Z,22.40
2018-06-25T12:35:46.132Z,22.70
2018-06-25T12:38:15.661Z,22.80
2018-06-25T12:40:44.144Z,23.00
2018-06-25T12:43:13.109Z,23.00
2018-06-25T12:45:42.002Z,23.00
2018-06-25T12:48:10.504Z,23.10
2018-06-25T12:50:40.000Z,23.00
2018-06-25T12:53:08.524Z,22.90
2018-06-25T12:55:37.006Z,22.70
2018-06-25T13:00:33.854Z,22.60
2018-06-25T13:03:03.591Z,22.40
2018-06-25T13:05:34.297Z,22.10
2018-06-25T13:08:02.882Z,21.80
2018-06-25T13:10:31.548Z,21.60
2018-06-25T13:13:00.395Z,21.60
2018-06-25T13:15:29.715Z,21.50
2018-06-25T13:17:58.160Z,21.50
2018-06-25T13:20:26.647Z,21.50
2018-06-25T13:22:55.115Z,21.50
2018-06-25T13:25:23.637Z,21.70
2018-06-25T13:27:52.660Z,21.80
2018-06-25T13:30:21.314Z,22.10
2018-06-25T13:32:49.916Z,22.20
2018-06-25T13:35:18.535Z,21.90
2018-06-25T13:37:47.052Z,22.00
2018-06-25T13:40:17.360Z,21.70
2018-06-25T13:42:45.999Z,21.80
2018-06-25T13:45:17.466Z,21.90
2018-06-25T13:47:46.183Z,22.20
2018-06-25T13:50:16.907Z,22.20
2018-06-25T13:52:45.442Z,22.40
2018-06-25T13:55:15.596Z,22.20
2018-06-25T13:57:44.205Z,22.00
2018-06-25T14:00:12.775Z,21.80
2018-06-25T14:02:41.247Z,22.00
2018-06-25T14:05:10.377Z,22.00
2018-06-25T14:07:38.890Z,21.90
2018-06-25T14:12:36.028Z,21.90
2018-06-25T14:15:05.303Z,22.00
2018-06-25T14:17:33.864Z,22.20
2018-06-25T14:20:04.641Z,22.40
2018-06-25T14:22:33.131Z,22.60
2018-06-25T14:25:02.316Z,22.80
2018-06-25T14:27:36.331Z,22.80
2018-06-25T14:30:10.427Z,22.90
2018-06-25T14:32:39.238Z,23.00
2018-06-25T14:35:13.135Z,23.20
2018-06-25T14:37:41.611Z,23.40
2018-06-25T14:40:10.163Z,23.60
2018-06-25T14:42:38.632Z,23.70
2018-06-25T14:45:07.359Z,23.60
2018-06-25T14:47:35.959Z,23.70
2018-06-25T14:50:04.836Z,23.60
2018-06-25T14:52:34.074Z,23.70
2018-06-25T14:55:02.586Z,23.80
2018-06-25T14:57:32.129Z,23.70
2018-06-25T15:00:00.695Z,23.70
2018-06-25T15:02:29.910Z,23.90
2018-06-25T15:04:58.507Z,23.70
2018-06-25T15:07:27.027Z,23.60
2018-06-25T15:12:23.655Z,23.30
2018-06-25T15:14:52.651Z,23.00
2018-06-25T15:17:21.214Z,22.90
2018-06-25T15:19:49.718Z,22.90
2018-06-25T15:22:18.250Z,22.80
2018-06-25T15:24:46.751Z,22.70
2018-06-25T15:27:16.575Z,22.70
2018-06-25T15:29:45.158Z,22.60
2018-06-25T15:32:14.633Z,22.60
2018-06-25T15:34:43.117Z,22.50
2018-06-25T15:37:11.727Z,22.50
2018-06-25T15:39:40.218Z,22.50
2018-06-25T15:42:08.716Z,22.50
2018-06-25T15:50:17.466Z,22.80
2018-06-25T15:55:15.328Z,22.90
2018-06-25T15:57:43.867Z,23.00
2018-06-25T16:00:12.441Z,23.10
2018-06-25T16:02:40.963Z,23.20
2018-06-25T16:05:09.880Z,23.30
2018-06-25T16:07:38.481Z,23.30
2018-06-25T16:10:07.041Z,23.20
2018-06-25T16:12:35.540Z,23.00
2018-06-25T16:15:04.103Z,23.10
2018-06-25T16:17:33.978Z,22.90
2018-06-25T16:20:03.045Z,22.70
2018-06-25T16:22:31.535Z,22.60
2018-06-25T16:25:01.049Z,22.70
2018-06-25T16:27:29.598Z,22.90
2018-06-25T16:29:59.959Z,22.90
2018-06-25T16:32:28.604Z,23.10
2018-06-25T16:34:57.780Z,23.30
2018-06-25T16:37:26.401Z,23.00
2018-06-25T16:39:55.959Z,22.90
2018-06-25T16:42:25.985Z,22.80
2018-06-25T16:47:22.745Z,22.30
2018-06-25T16:49:51.353Z,22.20
2018-06-25T16:52:20.858Z,22.10
2018-06-25T16:54:49.417Z,21.70
2018-06-25T16:59:46.297Z,21.60
2018-06-25T17:26:05.850Z,21.00
2018-06-25T17:28:34.453Z,20.90
2018-06-25T17:31:03.446Z,20.80
2018-06-25T17:45:02.896Z,20.50
2018-06-25T17:47:31.474Z,20.40
2018-06-25T17:50:00.147Z,20.50
2018-06-25T17:52:29.573Z,20.60
2018-06-25T17:54:58.135Z,20.70
2018-06-25T17:59:54.821Z,20.70
2018-06-25T18:02:23.359Z,20.60
2018-06-25T18:04:51.905Z,20.50
2018-06-25T18:07:20.574Z,20.60
2018-06-25T18:09:49.437Z,20.50
2018-06-25T18:12:18.277Z,20.30
2018-06-25T18:14:47.046Z,20.20
2018-06-25T18:17:17.695Z,20.20
2018-06-25T18:19:46.276Z,20.10
2018-06-25T18:22:16.454Z,20.10
2018-06-25T18:24:45.039Z,20.10
2018-06-25T18:27:13.532Z,20.20
2018-06-25T18:29:41.999Z,20.20
2018-06-25T18:32:10.539Z,20.20
2018-06-25T18:34:39.172Z,20.30
2018-06-25T18:37:07.755Z,20.40
2018-06-25T18:39:36.873Z,20.50
2018-06-25T18:42:05.454Z,20.40
2018-06-25T18:44:34.125Z,20.40
2018-06-25T18:47:03.567Z,20.30
2018-06-25T18:49:37.550Z,20.30
2018-06-25T18:52:06.443Z,20.30
2018-06-25T18:54:35.758Z,20.20
2018-06-25T18:57:04.344Z,20.00
2018-06-25T18:59:33.850Z,19.90
2018-06-25T19:02:02.691Z,19.80
2018-06-25T19:04:31.423Z,19.90
2018-06-25T19:06:59.983Z,19.80
2018-06-25T19:09:30.891Z,19.80
2018-06-25T19:11:59.609Z,19.80
2018-06-25T19:14:28.151Z,19.70
2018-06-25T19:16:56.832Z,19.70
2018-06-25T19:19:25.382Z,19.60
2018-06-25T19:21:55.714Z,19.60
2018-06-25T19:24:24.370Z,19.60
2018-06-25T19:26:53.423Z,19.60
2018-06-25T19:29:24.555Z,19.60
2018-06-25T19:31:53.531Z,19.60
2018-06-25T19:34:22.176Z,19.50
2018-06-25T19:36:50.744Z,19.40
2018-06-25T19:39:19.448Z,19.30
2018-06-25T19:41:47.907Z,19.30
2018-06-25T19:44:17.867Z,19.40
2018-06-25T19:46:46.589Z,19.30
2018-06-25T19:49:16.513Z,19.30
2018-06-25T19:51:45.171Z,19.20
2018-06-25T19:54:14.698Z,19.20
2018-06-25T19:56:45.047Z,19.10
2018-06-25T19:59:19.654Z,19.10
2018-06-25T20:01:48.156Z,19.00
2018-06-25T20:04:17.482Z,19.00
2018-06-25T20:06:46.253Z,19.00
2018-06-25T20:09:16.535Z,18.90
2018-06-25T20:11:45.211Z,18.80
2018-06-25T20:14:14.698Z,18.70
2018-06-25T20:16:43.256Z,18.50
2018-06-25T20:19:11.774Z,18.40
2018-06-25T20:24:10.225Z,18.30
2018-06-25T20:32:24.974Z,18.00
2018-06-25T20:34:53.606Z,18.00
2018-06-25T20:37:22.155Z,17.90
2018-06-25T20:42:19.792Z,17.70
2018-06-25T20:44:48.264Z,17.70
2018-06-25T20:47:17.594Z,17.60
2018-06-25T20:49:46.095Z,17.60
2018-06-25T20:52:16.452Z,17.60
2018-06-25T20:54:45.016Z,17.60
2018-06-25T20:59:43.709Z,17.60
2018-06-25T21:02:13.037Z,17.50
2018-06-25T21:04:41.666Z,17.60
2018-06-25T21:07:10.274Z,17.60
2018-06-25T21:09:38.828Z,17.60
2018-06-25T21:12:07.327Z,17.60
2018-06-25T21:14:35.826Z,17.60
2018-06-25T21:17:04.422Z,17.60
2018-06-25T21:19:36.230Z,17.50
2018-06-25T21:24:32.995Z,17.50
2018-06-25T21:29:29.758Z,17.50
2018-06-25T21:31:58.252Z,17.50
2018-06-25T21:34:26.846Z,17.40
2018-06-25T21:36:55.811Z,17.40
2018-06-25T21:41:52.624Z,17.20
2018-06-25T21:44:21.231Z,17.30
2018-06-25T21:46:50.186Z,17.30
2018-06-25T21:49:18.726Z,17.30
2018-06-25T21:51:47.219Z,17.30
2018-06-25T21:54:17.463Z,17.30
2018-06-25T21:56:45.976Z,17.30
2018-06-25T21:59:16.366Z,17.30
2018-06-25T22:01:49.507Z,17.30
2018-06-25T22:04:17.994Z,17.30
2018-06-25T22:06:46.469Z,17.40
2018-06-25T22:09:16.639Z,17.40
2018-06-25T22:11:45.266Z,17.40
2018-06-25T22:14:14.695Z,17.40
2018-06-25T22:16:43.791Z,17.40
2018-06-25T22:19:12.339Z,17.40
2018-06-25T22:21:41.048Z,17.40
2018-06-25T22:26:37.746Z,17.30
2018-06-25T22:29:06.855Z,17.20
2018-06-25T22:31:36.355Z,17.10
2018-06-25T22:34:05.143Z,17.00
2018-06-25T22:36:33.856Z,16.90
2018-06-25T22:39:02.472Z,16.70
2018-06-25T22:41:30.950Z,16.60
2018-06-25T22:44:09.560Z,16.70
2018-06-25T22:49:07.526Z,16.50
2018-06-25T22:51:36.614Z,16.60
2018-06-25T22:54:05.910Z,16.50
2018-06-25T22:56:34.667Z,16.50
2018-06-25T22:59:03.338Z,16.50
2018-06-25T23:01:32.759Z,16.50
2018-06-25T23:04:01.247Z,16.60
2018-06-25T23:06:30.218Z,16.60
2018-06-25T23:08:59.531Z,16.40
2018-06-25T23:11:28.060Z,16.40
2018-06-25T23:13:57.815Z,16.40
2018-06-25T23:16:26.278Z,16.30
2018-06-25T23:18:54.858Z,16.20
2018-06-25T23:21:23.383Z,16.20
2018-06-25T23:23:51.887Z,16.10
2018-06-25T23:26:20.359Z,16.00
2018-06-25T23:28:48.869Z,15.90
2018-06-25T23:31:17.354Z,15.70
2018-06-25T23:36:15.399Z,15.60
2018-06-25T23:38:43.868Z,15.50
2018-06-25T23:41:12.395Z,15.50
2018-06-25T23:43:40.954Z,15.50
2018-06-25T23:46:09.475Z,15.50
2018-06-25T23:48:37.954Z,15.50
2018-06-25T23:51:06.464Z,15.40
2018-06-25T23:53:34.955Z,15.30
2018-06-25T23:56:03.504Z,15.20
2018-06-25T23:58:32.435Z,15.20
